Time;durP1;ratioP1;P1;durP2;ratioP2;P2;SDS_P1;SDS_P2;PMS_P1;PMS_P2;Temp;Humidity;BMP_temperature;BMP_pressure;BME280_temperature;BME280_humidity;BME280_pressure;Samples;Min_cycle;Max_cycle;Signal;HPM_P1;HPM_P2
2021/05/22 00:01:35;;;;;;;;;;;;;;;26.35;36.11;100942.75;5118879;28;790;-41
2021/05/22 00:04:00;;;;;;;;;;;;;;;26.37;36.36;100942.59;5119294;28;770;-38
2021/05/22 00:06:25;;;;;;;;;;;;;;;26.34;36.59;100943.75;5118706;28;1959;-41
2021/05/22 00:08:50;;;;;;;;;;;;;;;26.33;36.60;100938.53;5118683;28;846;-41
2021/05/22 00:11:16;;;;;;;;;;;;;;;26.32;36.73;100947.63;5118943;28;941;-37
2021/05/22 00:13:41;;;;;;;;;;;;;;;26.34;36.59;100938.34;5117776;28;934;-31
2021/05/22 00:16:06;;;;;;;;;;;;;;;26.34;36.80;100937.53;5118990;28;827;-41
2021/05/22 00:18:32;;;;;;;;;;;;;;;26.32;36.61;100924.19;5119151;28;771;-40
2021/05/22 00:20:57;;;;;;;;;;;;;;;26.35;36.49;100926.56;5118664;28;763;-41
2021/05/22 00:23:22;;;;;;;;;;;;;;;26.33;36.46;100925.06;5118588;28;822;-40
2021/05/22 00:25:48;;;;;;;;;;;;;;;26.29;36.65;100927.25;5118937;28;818;-41
2021/05/22 00:28:13;;;;;;;;;;;;;;;26.29;36.59;100922.66;5118472;28;1968;-29
2021/05/22 00:30:38;;;;;;;;;;;;;;;26.27;36.89;100926.56;5118952;28;755;-40
2021/05/22 00:33:04;;;;;;;;;;;;;;;26.23;36.73;100930.63;5118418;28;854;-40
2021/05/22 00:35:29;;;;;;;;;;;;;;;26.32;36.67;100926.03;5118640;28;739;-35
2021/05/22 00:37:54;;;;;;;;;;;;;;;26.28;36.49;100923.69;5118288;28;1042;-40
2021/05/22 00:40:20;;;;;;;;;;;;;;;26.27;36.81;100918.47;5118657;28;759;-34
2021/05/22 00:42:45;;;;;;;;;;;;;;;26.27;36.84;100918.47;5118000;28;942;-41
2021/05/22 00:45:14;;;;;;;;;;;;;;;26.28;36.66;100920.16;5117979;28;1054;-43
2021/05/22 00:47:55;;;;;;;;;;;;;;;26.27;37.08;100918.47;5118427;28;1918;-42
2021/05/22 00:50:26;;;;;;;;;;;;;;;26.30;36.95;100920.81;5118270;28;931;-36
2021/05/22 00:52:52;;;;;;;;;;;;;;;26.25;36.84;100923.19;5117878;28;803;-40
2021/05/22 00:55:17;;;;;;;;;;;;;;;26.24;36.84;100924.22;5118088;28;775;-40
2021/05/22 00:57:42;;;;;;;;;;;;;;;26.28;36.98;100926.41;5117945;28;985;-41
2021/05/22 01:00:09;;;;;;;;;;;;;;;26.21;36.87;100919.19;5118025;28;823;-40
2021/05/22 01:02:35;;;;;;;;;;;;;;;26.20;36.92;100917.47;5118018;28;733;-41
2021/05/22 01:05:00;;;;;;;;;;;;;;;26.19;36.86;100927.44;5118047;28;848;-33
2021/05/22 01:07:25;;;;;;;;;;;;;;;26.24;36.92;100929.63;5117818;28;1902;-40
2021/05/22 01:09:52;;;;;;;;;;;;;;;26.20;36.84;100931.81;5117910;28;771;-34
2021/05/22 01:12:17;;;;;;;;;;;;;;;26.23;36.82;100931.47;5117669;28;1017;-33
2021/05/22 01:14:46;;;;;;;;;;;;;;;26.22;36.92;100943.28;5117670;28;753;-37
2021/05/22 01:17:12;;;;;;;;;;;;;;;26.21;37.07;100941.56;5117987;28;820;-40
2021/05/22 01:19:56;;;;;;;;;;;;;;;26.19;36.93;100930.13;5117639;28;753;-39
2021/05/22 01:22:21;;;;;;;;;;;;;;;26.16;36.95;100933.16;5117427;28;760;-32
2021/05/22 01:24:48;;;;;;;;;;;;;;;26.19;37.13;100927.44;5115882;28;756;-34
2021/05/22 01:27:13;;;;;;;;;;;;;;;26.15;37.17;100924.25;5116826;28;1905;-31
2021/05/22 01:29:38;;;;;;;;;;;;;;;26.19;37.12;100923.91;5116245;28;777;-31
2021/05/22 01:32:04;;;;;;;;;;;;;;;26.19;36.94;100937.38;5117430;28;871;-39
2021/05/22 01:34:29;;;;;;;;;;;;;;;26.16;37.17;100936.69;5116579;28;793;-32
2021/05/22 01:36:55;;;;;;;;;;;;;;;26.20;37.18;100931.81;5116938;28;940;-39
2021/05/22 01:39:20;;;;;;;;;;;;;;;26.20;37.12;100936.34;5117758;28;865;-37
2021/05/22 01:41:45;;;;;;;;;;;;;;;26.19;37.07;100929.28;5116504;28;989;-35
2021/05/22 01:44:10;;;;;;;;;;;;;;;26.21;36.83;100927.28;5115316;28;1027;-35
2021/05/22 01:46:36;;;;;;;;;;;;;;;26.19;37.23;100937.38;5116171;28;1905;-37
2021/05/22 01:49:01;;;;;;;;;;;;;;;26.17;36.96;100942.94;5116174;28;861;-32
2021/05/22 01:51:27;;;;;;;;;;;;;;;26.19;37.01;100942.78;5116977;28;794;-37
2021/05/22 01:53:53;;;;;;;;;;;;;;;26.19;36.95;100937.38;5116361;28;758;-41
2021/05/22 01:56:19;;;;;;;;;;;;;;;26.16;36.94;100935.84;5115938;28;1127;-32
2021/05/22 01:58:45;;;;;;;;;;;;;;;26.19;37.19;100932.84;5094887;28;835;-38
2021/05/22 02:01:13;;;;;;;;;;;;;;;26.20;36.98;100930.97;5097300;28;727;-34
2021/05/22 02:03:42;;;;;;;;;;;;;;;26.24;36.86;100940.41;5096864;28;815;-39
2021/05/22 02:06:10;;;;;;;;;;;;;;;26.20;37.01;100930.97;5112379;28;830;-40
2021/05/22 02:08:37;;;;;;;;;;;;;;;26.21;36.95;100935.34;5112615;28;1894;-39
2021/05/22 02:11:02;;;;;;;;;;;;;;;26.19;36.88;100943.63;5096669;28;818;-36
2021/05/22 02:13:27;;;;;;;;;;;;;;;26.19;37.05;100932.84;5115699;28;1001;-42
2021/05/22 02:15:59;;;;;;;;;;;;;;;26.13;37.12;100938.88;5117450;28;778;-41
2021/05/22 02:18:25;;;;;;;;;;;;;;;26.12;37.08;100937.22;5117029;28;808;-33
2021/05/22 02:20:51;;;;;;;;;;;;;;;26.08;37.18;100942.09;5116680;28;822;-32
2021/05/22 02:23:17;;;;;;;;;;;;;;;26.12;37.14;100948.00;5116099;28;783;-41
2021/05/22 02:25:42;;;;;;;;;;;;;;;26.12;37.32;100956.94;5115719;28;777;-34
2021/05/22 02:28:07;;;;;;;;;;;;;;;26.10;37.22;100963.50;5116166;28;1905;-41
2021/05/22 02:30:34;;;;;;;;;;;;;;;26.15;37.33;100969.22;5116917;28;815;-41
2021/05/22 02:32:59;;;;;;;;;;;;;;;26.16;37.14;100973.59;5116523;28;829;-41
2021/05/22 02:35:24;;;;;;;;;;;;;;;26.15;37.20;100978.16;5116260;28;723;-33
2021/05/22 02:37:50;;;;;;;;;;;;;;;26.16;37.34;100982.53;5119897;28;783;-35
2021/05/22 02:40:16;;;;;;;;;;;;;;;26.16;37.14;100981.69;5119577;28;815;-32
2021/05/22 02:42:46;;;;;;;;;;;;;;;26.12;37.08;100985.75;5119236;28;954;-32
2021/05/22 02:45:11;;;;;;;;;;;;;;;26.09;37.28;100992.31;5119450;28;1366;-41
2021/05/22 02:47:37;;;;;;;;;;;;;;;26.09;37.52;100991.50;5119372;28;1913;-32
2021/05/22 02:50:06;;;;;;;;;;;;;;;26.12;37.21;100996.53;5119177;28;823;-34
2021/05/22 02:52:31;;;;;;;;;;;;;;;26.13;37.25;100990.13;5119379;28;831;-34
2021/05/22 02:54:57;;;;;;;;;;;;;;;26.08;37.35;100989.78;5119420;28;841;-34
2021/05/22 02:57:25;;;;;;;;;;;;;;;26.15;37.26;100997.03;5119537;28;1021;-38
2021/05/22 02:59:50;;;;;;;;;;;;;;;26.12;37.26;101002.78;5119185;28;862;-38
2021/05/22 03:02:16;;;;;;;;;;;;;;;26.14;37.21;100999.91;5119001;28;811;-34
2021/05/22 03:04:41;;;;;;;;;;;;;;;26.08;37.28;101008.66;5120169;28;913;-40
2021/05/22 03:07:06;;;;;;;;;;;;;;;26.10;37.28;101009.34;5120044;28;1976;-41
2021/05/22 03:09:32;;;;;;;;;;;;;;;26.09;37.41;101010.34;5120338;28;771;-41
2021/05/22 03:11:57;;;;;;;;;;;;;;;26.09;37.52;101013.88;5119590;28;992;-41
2021/05/22 03:14:22;;;;;;;;;;;;;;;26.12;37.10;101010.88;5119997;28;747;-38
2021/05/22 03:16:47;;;;;;;;;;;;;;;26.18;37.48;101017.41;5119764;28;813;-32
2021/05/22 03:19:13;;;;;;;;;;;;;;;26.31;37.15;101013.38;5119925;28;839;-43
2021/05/22 03:21:38;;;;;;;;;;;;;;;26.41;36.74;101017.59;5120013;28;889;-44
2021/05/22 03:24:04;;;;;;;;;;;;;;;26.28;36.88;101015.38;5120056;28;822;-44
2021/05/22 03:26:29;;;;;;;;;;;;;;;26.23;36.96;101019.59;5119540;28;1909;-43
2021/05/22 03:28:54;;;;;;;;;;;;;;;26.34;36.93;101013.88;5119644;28;840;-45
2021/05/22 03:31:20;;;;;;;;;;;;;;;26.37;36.92;101007.31;5119626;28;977;-46
2021/05/22 03:33:45;;;;;;;;;;;;;;;26.32;37.02;101017.75;5119502;28;732;-47
2021/05/22 03:36:10;;;;;;;;;;;;;;;26.24;37.33;101016.72;5119735;28;811;-35
2021/05/22 03:38:36;;;;;;;;;;;;;;;26.28;37.21;101010.00;5119466;28;747;-50
2021/05/22 03:41:01;;;;;;;;;;;;;;;26.23;32.63;101014.19;5119112;28;543;-37
2021/05/22 03:43:26;;;;;;;;;;;;;;;25.50;30.87;101012.13;5118959;28;1012;-39
2021/05/22 03:45:52;;;;;;;;;;;;;;;25.05;30.91;101012.34;5119293;28;1367;-38
2021/05/22 03:48:17;;;;;;;;;;;;;;;24.84;31.09;101013.56;5117862;28;1906;-43
2021/05/22 03:50:42;;;;;;;;;;;;;;;24.28;31.78;101014.78;5119365;28;831;-43
2021/05/22 03:53:08;;;;;;;;;;;;;;;24.17;32.34;101018.56;5119305;28;843;-37
2021/05/22 03:55:33;;;;;;;;;;;;;;;23.73;33.61;101014.81;5118985;28;864;-37
2021/05/22 03:57:59;;;;;;;;;;;;;;;23.53;33.75;101016.81;5121040;27;1185;-36
2021/05/22 04:00:24;;;;;;;;;;;;;;;23.27;34.27;101020.19;5122982;27;797;-38
2021/05/22 04:02:49;;;;;;;;;;;;;;;23.02;34.54;101027.97;5119035;28;870;-35
2021/05/22 04:05:15;;;;;;;;;;;;;;;23.20;34.16;101029.84;5130616;27;759;-44
2021/05/22 04:07:40;;;;;;;;;;;;;;;23.50;33.55;101041.28;5140128;27;1966;-44
2021/05/22 04:10:06;;;;;;;;;;;;;;;23.17;34.19;101043.56;5139650;27;801;-37
2021/05/22 04:12:31;;;;;;;;;;;;;;;22.74;34.81;101039.50;5126592;27;973;-33
2021/05/22 04:14:56;;;;;;;;;;;;;;;22.12;36.27;101042.56;5120447;27;1493;-37
2021/05/22 04:17:22;;;;;;;;;;;;;;;21.52;37.64;101038.97;5139375;27;823;-36
2021/05/22 04:19:47;;;;;;;;;;;;;;;22.51;36.07;101038.94;5137745;27;766;-37
2021/05/22 04:22:13;;;;;;;;;;;;;;;23.17;34.72;101039.00;5139410;27;743;-45
2021/05/22 04:24:38;;;;;;;;;;;;;;;23.28;34.55;101046.03;5124495;27;723;-47
2021/05/22 04:27:03;;;;;;;;;;;;;;;23.34;34.66;101048.13;5117685;28;1902;-45
2021/05/22 04:29:28;;;;;;;;;;;;;;;23.40;34.57;101046.72;5118422;28;792;-46
2021/05/22 04:31:54;;;;;;;;;;;;;;;23.21;34.94;101052.97;5118477;28;737;-42
2021/05/22 04:34:19;;;;;;;;;;;;;;;23.42;35.03;101049.25;5118443;28;838;-36
2021/05/22 04:36:44;;;;;;;;;;;;;;;24.01;34.49;101046.13;5118273;28;676;-36
2021/05/22 04:39:10;;;;;;;;;;;;;;;24.46;33.73;101059.59;5117052;27;1462;-35
2021/05/22 04:41:35;;;;;;;;;;;;;;;24.78;33.24;101068.03;5130284;27;1478;-32
2021/05/22 04:44:00;;;;;;;;;;;;;;;25.01;33.29;101068.34;5123549;27;1371;-36
2021/05/22 04:46:25;;;;;;;;;;;;;;;25.06;33.20;101074.09;5138742;27;1984;-34
2021/05/22 04:48:51;;;;;;;;;;;;;;;25.04;33.77;101077.97;5139035;27;767;-34
2021/05/22 04:51:16;;;;;;;;;;;;;;;25.07;33.94;101075.78;5138332;27;854;-35
2021/05/22 04:53:42;;;;;;;;;;;;;;;25.11;34.16;101078.16;5139076;27;755;-41
2021/05/22 04:56:07;;;;;;;;;;;;;;;25.30;33.78;101082.44;5138126;27;960;-33
2021/05/22 04:58:32;;;;;;;;;;;;;;;25.41;33.78;101083.97;5117560;28;993;-41
2021/05/22 05:00:57;;;;;;;;;;;;;;;25.40;34.21;101076.91;5118135;28;820;-36
2021/05/22 05:03:23;;;;;;;;;;;;;;;25.41;34.27;101074.06;5118048;28;762;-42
2021/05/22 05:05:48;;;;;;;;;;;;;;;25.39;34.34;101077.94;5117825;28;851;-43
2021/05/22 05:08:18;;;;;;;;;;;;;;;25.38;34.24;101081.63;5118227;28;1976;-34
2021/05/22 05:10:45;;;;;;;;;;;;;;;25.48;34.27;101089.56;5116711;28;814;-41
2021/05/22 05:13:10;;;;;;;;;;;;;;;25.58;34.18;101087.56;5117202;28;1020;-35
2021/05/22 05:15:35;;;;;;;;;;;;;;;25.60;34.46;101092.81;5116700;28;1504;-35
2021/05/22 05:18:00;;;;;;;;;;;;;;;25.65;34.69;101098.56;5117426;28;865;-35
2021/05/22 05:20:26;;;;;;;;;;;;;;;25.73;34.52;101101.28;5117692;28;802;-41
2021/05/22 05:22:51;;;;;;;;;;;;;;;25.75;34.77;101090.34;5118044;28;810;-33
2021/05/22 05:25:16;;;;;;;;;;;;;;;25.84;34.80;101099.28;5117108;28;1476;-43
2021/05/22 05:27:42;;;;;;;;;;;;;;;25.91;34.76;101097.59;5116997;28;1909;-36
2021/05/22 05:30:07;;;;;;;;;;;;;;;25.91;34.65;101109.22;5117750;28;767;-33
2021/05/22 05:32:32;;;;;;;;;;;;;;;26.06;34.63;101108.56;5116902;28;739;-37
2021/05/22 05:34:58;;;;;;;;;;;;;;;26.07;34.76;101109.44;5117418;28;798;-35
2021/05/22 05:37:23;;;;;;;;;;;;;;;26.14;34.55;101113.97;5117505;28;770;-40
2021/05/22 05:39:48;;;;;;;;;;;;;;;26.22;34.63;101112.31;5116492;28;926;-36
2021/05/22 05:42:14;;;;;;;;;;;;;;;26.21;35.18;101106.06;5116711;28;996;-48
2021/05/22 05:44:39;;;;;;;;;;;;;;;26.17;35.79;101110.13;5117301;28;1083;-36
2021/05/22 05:47:04;;;;;;;;;;;;;;;26.23;35.89;101117.53;5116459;28;1976;-34
2021/05/22 05:49:30;;;;;;;;;;;;;;;26.33;35.66;101116.53;5117345;28;807;-34
2021/05/22 05:51:56;;;;;;;;;;;;;;;26.17;35.26;101118.19;5117088;28;853;-43
2021/05/22 05:54:21;;;;;;;;;;;;;;;26.08;35.66;101125.44;5116491;28;795;-33
2021/05/22 05:56:46;;;;;;;;;;;;;;;26.13;35.65;101122.22;5116681;28;949;-33
2021/05/22 05:59:11;;;;;;;;;;;;;;;26.16;35.83;101125.44;5117089;28;819;-33
2021/05/22 06:01:37;;;;;;;;;;;;;;;26.21;35.82;101127.63;5116771;28;763;-33
2021/05/22 06:04:04;;;;;;;;;;;;;;;26.23;35.46;101125.63;5116736;28;803;-35
2021/05/22 06:06:30;;;;;;;;;;;;;;;26.15;34.18;101126.47;5117073;28;1905;-34
2021/05/22 06:08:55;;;;;;;;;;;;;;;25.59;34.20;101124.28;5116641;28;815;-36
2021/05/22 06:11:23;;;;;;;;;;;;;;;25.61;33.86;101119.56;5116633;28;1494;-35
2021/05/22 06:13:48;;;;;;;;;;;;;;;25.23;33.21;101125.31;5116116;28;829;-35
2021/05/22 06:18:41;;;;;;;;;;;;;;;25.19;34.53;101115.91;5117302;28;727;-36
2021/05/22 06:21:07;;;;;;;;;;;;;;;24.90;33.80;101109.84;5132336;28;801;-34
2021/05/22 06:23:33;;;;;;;;;;;;;;;25.08;33.96;101106.25;5116316;28;901;-35
2021/05/22 06:25:58;;;;;;;;;;;;;;;25.30;33.29;101107.53;5116623;28;782;-33
2021/05/22 06:28:24;;;;;;;;;;;;;;;25.35;34.72;101106.19;5116038;28;1897;-32
2021/05/22 06:30:49;;;;;;;;;;;;;;;25.18;33.78;101098.03;5116620;28;787;-32
2021/05/22 06:33:14;;;;;;;;;;;;;;;25.06;34.10;101100.16;5116575;28;739;-33
2021/05/22 06:35:41;;;;;;;;;;;;;;;25.18;33.88;101100.72;5116940;28;777;-38
2021/05/22 06:38:06;;;;;;;;;;;;;;;25.06;33.99;101094.78;5116408;28;811;-36
2021/05/22 06:40:31;;;;;;;;;;;;;;;25.07;34.40;101094.63;5116740;28;743;-34
2021/05/22 06:42:57;;;;;;;;;;;;;;;25.12;33.72;101098.69;5115629;28;938;-35
2021/05/22 06:45:27;;;;;;;;;;;;;;;25.17;34.75;101099.06;5116457;28;1268;-34
2021/05/22 06:47:52;;;;;;;;;;;;;;;25.26;34.02;101102.59;5115943;28;1905;-37
2021/05/22 06:50:18;;;;;;;;;;;;;;;25.08;34.65;101103.53;5116569;28;786;-33
2021/05/22 06:52:43;;;;;;;;;;;;;;;25.21;33.10;101096.88;5116239;28;745;-39
2021/05/22 06:55:08;;;;;;;;;;;;;;;25.03;34.62;101097.78;5116174;28;811;-33
2021/05/22 06:57:34;;;;;;;;;;;;;;;25.23;33.87;101105.63;5116248;28;1053;-35
2021/05/22 06:59:59;;;;;;;;;;;;;;;25.12;33.77;101099.53;5116377;28;844;-33
2021/05/22 07:02:28;;;;;;;;;;;;;;;25.23;34.18;101094.84;5116113;28;751;-35
2021/05/22 07:04:53;;;;;;;;;;;;;;;25.17;34.01;101091.81;5116304;28;763;-36
2021/05/22 07:07:18;;;;;;;;;;;;;;;25.21;33.98;101088.81;5124889;28;2026;-33
2021/05/22 07:12:44;;;;;;;;;;;;;;;25.25;33.39;101092.84;5115591;22;1848;-35
2021/05/22 07:15:13;;;;;;;;;;;;;;;25.27;33.37;101090.84;5056206;28;739;-31
2021/05/22 07:17:38;;;;;;;;;;;;;;;25.26;34.02;101095.38;5056093;28;823;-35
2021/05/22 07:20:04;;;;;;;;;;;;;;;25.25;33.46;101088.31;5056127;28;787;-36
2021/05/22 07:22:29;;;;;;;;;;;;;;;25.40;33.68;101087.69;5056955;28;736;-34
2021/05/22 07:24:54;;;;;;;;;;;;;;;24.59;35.15;101091.44;5059444;28;787;-34
2021/05/22 07:27:20;;;;;;;;;;;;;;;24.84;34.75;101094.28;5058569;28;1917;-33
2021/05/22 07:29:47;;;;;;;;;;;;;;;25.11;33.78;101088.94;5058501;28;850;-34
2021/05/22 07:32:12;;;;;;;;;;;;;;;25.50;33.54;101091.09;5058839;28;1574;-29
2021/05/22 07:34:39;;;;;;;;;;;;;;;25.71;32.68;101086.31;5058880;28;743;-39
2021/05/22 07:37:05;;;;;;;;;;;;;;;25.77;33.14;101091.88;5059325;28;839;-39
2021/05/22 07:39:30;;;;;;;;;;;;;;;25.75;32.96;101091.19;5059285;28;791;-37
2021/05/22 07:41:55;;;;;;;;;;;;;;;25.86;32.55;101086.50;5058154;28;963;-41
2021/05/22 07:44:21;;;;;;;;;;;;;;;25.86;32.40;101089.19;5059510;28;802;-37
2021/05/22 07:46:52;;;;;;;;;;;;;;;25.86;31.93;101086.50;5058897;28;1909;-27
2021/05/22 07:49:17;;;;;;;;;;;;;;;25.99;33.27;101083.31;5058834;28;874;-36
2021/05/22 07:51:43;;;;;;;;;;;;;;;25.98;32.48;101085.16;5058697;28;804;-35
2021/05/22 07:54:08;;;;;;;;;;;;;;;26.08;33.14;101084.13;5058380;28;839;-36
2021/05/22 07:56:34;;;;;;;;;;;;;;;26.09;32.35;101080.44;5058225;28;920;-27
2021/05/22 07:58:59;;;;;;;;;;;;;;;25.96;31.97;101071.00;5058899;28;834;-34
2021/05/22 08:01:24;;;;;;;;;;;;;;;26.19;32.65;101077.59;5058532;28;775;-33
2021/05/22 08:03:50;;;;;;;;;;;;;;;26.29;32.85;101081.78;5058492;28;739;-32
2021/05/22 08:06:18;;;;;;;;;;;;;;;26.37;32.64;101082.84;5040535;28;789;-34
2021/05/22 08:08:44;;;;;;;;;;;;;;;26.39;33.36;101086.22;5057640;28;1975;-31
2021/05/22 08:11:10;;;;;;;;;;;;;;;26.46;32.46;101084.50;5058050;28;1035;-28
2021/05/22 08:13:35;;;;;;;;;;;;;;;26.40;32.28;101079.78;5058269;28;940;-28
2021/05/22 08:16:00;;;;;;;;;;;;;;;26.53;32.50;101077.41;5058629;28;940;-34
2021/05/22 08:18:25;;;;;;;;;;;;;;;26.43;32.57;101075.91;5058238;28;791;-29
2021/05/22 08:20:53;;;;;;;;;;;;;;;26.43;32.54;101076.75;5058074;28;816;-33
2021/05/22 08:23:18;;;;;;;;;;;;;;;26.48;32.37;101076.22;5057403;28;1189;-33
2021/05/22 08:25:43;;;;;;;;;;;;;;;26.48;32.07;101074.38;5057341;28;878;-28
2021/05/22 08:28:09;;;;;;;;;;;;;;;26.59;32.16;101064.25;5057911;28;1905;-28
2021/05/22 08:30:34;;;;;;;;;;;;;;;26.53;32.50;101068.47;5058310;28;763;-34
2021/05/22 08:33:01;;;;;;;;;;;;;;;26.41;30.95;101068.84;5057219;28;843;-33
2021/05/22 08:35:27;;;;;;;;;;;;;;;26.47;31.53;101071.88;5058222;28;748;-28
2021/05/22 08:37:52;;;;;;;;;;;;;;;26.58;31.39;101059.84;5058101;28;796;-31
2021/05/22 08:40:17;;;;;;;;;;;;;;;26.54;31.27;101064.78;5056820;28;1080;-28
2021/05/22 08:42:43;;;;;;;;;;;;;;;26.60;31.42;101061.38;5057569;28;1002;-31
2021/05/22 08:45:14;;;;;;;;;;;;;;;26.73;31.27;101057.28;5058052;28;744;-33
2021/05/22 08:47:39;;;;;;;;;;;;;;;26.92;31.87;101055.22;5045600;28;1959;-33
2021/05/22 08:50:05;;;;;;;;;;;;;;;26.88;31.78;101057.41;5057373;28;784;-34
2021/05/22 08:52:31;;;;;;;;;;;;;;;26.85;31.13;101060.47;5057907;28;812;-29
2021/05/22 08:54:56;;;;;;;;;;;;;;;26.73;30.29;101055.44;5054176;28;1026;-33
2021/05/22 08:57:21;;;;;;;;;;;;;;;26.87;31.30;101053.91;5055938;28;802;-32
2021/05/22 08:59:47;;;;;;;;;;;;;;;26.77;30.42;101040.59;5056754;28;1076;-34
2021/05/22 09:02:22;;;;;;;;;;;;;;;26.89;30.59;101048.31;5056155;28;1294;-34
2021/05/22 09:05:03;;;;;;;;;;;;;;;26.94;30.69;101043.25;5057463;28;783;-32
2021/05/22 09:07:29;;;;;;;;;;;;;;;26.88;30.65;101031.28;5057311;28;1879;-32
2021/05/22 09:09:54;;;;;;;;;;;;;;;26.99;29.18;101031.91;5055136;28;1506;-33
2021/05/22 09:12:19;;;;;;;;;;;;;;;27.02;29.27;101037.84;5056734;28;1312;-32
2021/05/22 09:14:54;;;;;;;;;;;;;;;27.01;29.88;101037.97;5059823;28;1484;-33
2021/05/22 09:17:19;;;;;;;;;;;;;;;27.08;30.35;101039.00;5056352;28;807;-32
2021/05/22 09:19:44;;;;;;;;;;;;;;;27.03;30.66;101038.66;5057553;28;792;-33
2021/05/22 09:22:13;;;;;;;;;;;;;;;27.00;29.09;101045.25;5057300;28;775;-33
2021/05/22 09:24:54;;;;;;;;;;;;;;;26.82;28.01;101033.84;5056556;28;1315;-32
2021/05/22 09:27:19;;;;;;;;;;;;;;;26.87;28.08;101037.69;5045975;28;1906;-31
2021/05/22 09:29:44;;;;;;;;;;;;;;;26.99;27.21;101035.44;5056682;28;1248;-34
2021/05/22 09:32:13;;;;;;;;;;;;;;;27.15;28.87;101039.13;5056869;28;776;-34
2021/05/22 09:34:38;;;;;;;;;;;;;;;27.18;28.24;101030.66;5038815;28;989;-32
2021/05/22 09:37:12;;;;;;;;;;;;;;;27.13;29.29;101035.75;5056694;28;834;-29
2021/05/22 09:39:45;;;;;;;;;;;;;;;27.15;29.07;101022.91;5056857;28;799;-33
2021/05/22 09:42:10;;;;;;;;;;;;;;;27.29;27.80;101026.75;5056636;28;1003;-33
2021/05/22 09:44:35;;;;;;;;;;;;;;;27.32;27.23;101022.84;5048811;28;1536;-28
2021/05/22 09:47:02;;;;;;;;;;;;;;;27.41;28.65;101018.22;5037409;28;1977;-29
2021/05/22 09:49:31;;;;;;;;;;;;;;;27.67;28.32;101017.03;5056407;28;887;-30
2021/05/22 09:51:56;;;;;;;;;;;;;;;27.60;28.51;101011.50;5056509;28;1288;-30
2021/05/22 09:54:40;;;;;;;;;;;;;;;27.61;28.50;101005.91;5056493;28;793;-30
2021/05/22 09:57:06;;;;;;;;;;;;;;;27.49;28.30;101007.38;5056411;28;1018;-34
2021/05/22 09:59:31;;;;;;;;;;;;;;;27.56;27.49;101012.91;5056226;28;728;-35
2021/05/22 10:01:59;;;;;;;;;;;;;;;27.57;27.59;100996.50;5056396;28;760;-32
2021/05/22 10:04:24;;;;;;;;;;;;;;;27.62;27.37;101004.06;5055381;28;1183;-33
2021/05/22 10:06:49;;;;;;;;;;;;;;;27.81;27.28;101002.75;5056185;28;1983;-33
2021/05/22 10:09:16;;;;;;;;;;;;;;;27.81;27.71;101001.94;5056111;28;759;-33
2021/05/22 10:12:00;;;;;;;;;;;;;;;27.58;28.05;100995.47;5055812;28;1645;-32
2021/05/22 10:14:27;;;;;;;;;;;;;;;27.56;28.16;101000.22;5056607;28;786;-32
2021/05/22 10:16:52;;;;;;;;;;;;;;;27.48;28.02;101002.97;5038406;28;836;-31
2021/05/22 10:19:17;;;;;;;;;;;;;;;27.29;28.41;101005.13;5038821;28;823;-33
2021/05/22 10:21:43;;;;;;;;;;;;;;;27.36;28.37;101003.38;5055961;28;855;-34
2021/05/22 10:24:08;;;;;;;;;;;;;;;27.32;28.88;100987.72;5038346;28;983;-32
2021/05/22 10:26:33;;;;;;;;;;;;;;;27.26;28.70;100991.97;5036332;28;1979;-32
2021/05/22 10:28:59;;;;;;;;;;;;;;;27.16;28.81;100997.59;5056525;28;744;-30
2021/05/22 10:31:24;;;;;;;;;;;;;;;27.13;28.83;100979.91;5037326;28;851;-30
2021/05/22 10:33:49;;;;;;;;;;;;;;;27.10;29.57;100977.56;5055157;28;958;-29
2021/05/22 10:36:20;;;;;;;;;;;;;;;27.01;29.58;100970.47;5054670;28;841;-30
2021/05/22 10:38:51;;;;;;;;;;;;;;;27.00;29.75;100969.66;5054451;28;1294;-29
2021/05/22 10:41:17;;;;;;;;;;;;;;;27.00;29.90;100971.50;5055399;28;955;-30
2021/05/22 10:43:56;;;;;;;;;;;;;;;27.08;30.01;100968.78;5055081;28;1283;-29
2021/05/22 10:46:22;;;;;;;;;;;;;;;27.22;29.61;100978.00;5055971;28;819;-31
2021/05/22 10:48:47;;;;;;;;;;;;;;;27.22;29.70;100969.03;5056322;28;1906;-29
2021/05/22 10:51:25;;;;;;;;;;;;;;;27.22;29.64;100967.19;5056671;28;783;-31
2021/05/22 10:53:54;;;;;;;;;;;;;;;27.29;29.92;100972.72;5055889;28;899;-30
2021/05/22 10:56:20;;;;;;;;;;;;;;;27.29;30.21;100961.06;5056655;28;995;-29
2021/05/22 10:58:57;;;;;;;;;;;;;;;27.38;29.99;100965.38;5060450;28;731;-35
2021/05/22 11:01:39;;;;;;;;;;;;;;;27.38;29.94;100966.22;5059211;28;496;-29
2021/05/22 11:04:06;;;;;;;;;;;;;;;27.42;30.08;100964.03;5059332;28;1347;-33
2021/05/22 11:06:40;;;;;;;;;;;;;;;27.43;29.90;100964.84;5060159;28;795;-30
2021/05/22 11:09:25;;;;;;;;;;;;;;;27.43;29.68;100960.28;5059496;28;746;-30
2021/05/22 11:11:50;;;;;;;;;;;;;;;27.49;29.88;100964.13;5058908;28;1088;-35
2021/05/22 11:14:34;;;;;;;;;;;;;;;27.49;30.07;100967.66;5059402;28;1202;-36
2021/05/22 11:17:00;;;;;;;;;;;;;;;27.53;29.83;100967.34;5059534;28;759;-36
2021/05/22 11:19:25;;;;;;;;;;;;;;;27.54;29.93;100971.69;5059944;28;775;-38
2021/05/22 11:22:13;;;;;;;;;;;;;;;27.50;29.61;100965.81;5059640;28;993;-30
2021/05/22 11:24:58;;;;;;;;;;;;;;;27.50;29.83;100968.50;5059736;28;788;-34
2021/05/22 11:27:35;;;;;;;;;;;;;;;27.53;30.07;100973.56;5059280;28;1976;-30
2021/05/22 11:30:02;;;;;;;;;;;;;;;27.59;30.16;100969.31;5074238;28;1282;-35
2021/05/22 11:32:43;;;;;;;;;;;;;;;27.57;29.95;100968.63;5059686;28;823;-37
2021/05/22 11:35:30;;;;;;;;;;;;;;;27.48;30.13;100971.41;5059585;28;821;-33
2021/05/22 11:37:56;;;;;;;;;;;;;;;27.48;29.62;100968.69;5058634;28;835;-30
2021/05/22 11:40:44;;;;;;;;;;;;;;;27.56;29.71;100978.59;5059652;28;759;-36
2021/05/22 11:43:12;;;;;;;;;;;;;;;27.59;29.09;100980.09;5058561;28;1226;-35
2021/05/22 11:45:40;;;;;;;;;;;;;;;27.56;28.93;100969.66;5058979;28;760;-35
2021/05/22 11:48:24;;;;;;;;;;;;;;;27.59;28.79;100966.59;5059230;28;1898;-30
2021/05/22 11:50:50;;;;;;;;;;;;;;;27.55;29.04;100970.66;5058273;28;1481;-34
2021/05/22 11:53:15;;;;;;;;;;;;;;;27.49;28.96;100958.75;5058723;28;840;-35
2021/05/22 11:55:41;;;;;;;;;;;;;;;27.50;28.44;100958.56;5059270;28;748;-36
2021/05/22 11:58:07;;;;;;;;;;;;;;;27.53;28.63;100960.03;5058530;28;960;-30
2021/05/22 12:00:32;;;;;;;;;;;;;;;27.39;29.15;100957.09;5058280;28;769;-30
2021/05/22 12:02:57;;;;;;;;;;;;;;;27.38;29.32;100950.03;5057881;28;1148;-30
2021/05/22 12:05:22;;;;;;;;;;;;;;;27.22;29.63;100942.03;5058607;28;874;-32
2021/05/22 12:07:51;;;;;;;;;;;;;;;27.02;29.88;100948.75;5057732;28;1981;-29
2021/05/22 12:10:17;;;;;;;;;;;;;;;27.02;29.62;100943.34;5058681;28;819;-28
2021/05/22 12:12:42;;;;;;;;;;;;;;;27.04;29.63;100943.16;5058153;28;1304;-29
2021/05/22 12:15:20;;;;;;;;;;;;;;;27.04;29.32;100937.78;5058206;28;830;-34
2021/05/22 12:17:45;;;;;;;;;;;;;;;26.99;29.78;100940.13;5058600;28;864;-28
2021/05/22 12:20:11;;;;;;;;;;;;;;;26.96;29.70;100941.31;5058464;28;756;-28
2021/05/22 12:22:36;;;;;;;;;;;;;;;27.04;29.21;100936.91;5058169;28;716;-31
2021/05/22 12:25:01;;;;;;;;;;;;;;;26.92;29.24;100937.28;5058007;28;709;-32
2021/05/22 12:27:27;;;;;;;;;;;;;;;26.94;29.53;100929.88;5057375;28;1910;-33
2021/05/22 12:29:52;;;;;;;;;;;;;;;26.83;29.53;100938.34;5058021;28;775;-33
2021/05/22 12:32:18;;;;;;;;;;;;;;;26.96;29.56;100924.28;5058059;28;1084;-29
2021/05/22 12:34:43;;;;;;;;;;;;;;;26.95;29.71;100925.28;5058058;28;819;-30
2021/05/22 12:37:14;;;;;;;;;;;;;;;26.98;29.21;100920.38;5057827;28;740;-32
2021/05/22 12:39:40;;;;;;;;;;;;;;;26.94;28.87;100929.03;5058101;28;784;-30
2021/05/22 12:42:14;;;;;;;;;;;;;;;26.96;28.89;100929.69;5057618;28;943;-32
2021/05/22 12:44:40;;;;;;;;;;;;;;;26.88;27.44;100926.00;5057334;28;796;-32
2021/05/22 12:47:05;;;;;;;;;;;;;;;26.77;27.47;100921.84;5040227;28;1915;-31
2021/05/22 12:49:33;;;;;;;;;;;;;;;26.77;28.04;100915.63;5058057;28;775;-31
2021/05/22 12:51:59;;;;;;;;;;;;;;;26.76;28.20;100912.06;5057577;28;771;-29
2021/05/22 12:54:43;;;;;;;;;;;;;;;26.80;29.05;100922.50;5057466;28;979;-32
2021/05/22 12:57:09;;;;;;;;;;;;;;;26.78;29.14;100912.72;5056168;28;778;-32